sensor_id;sensor_type;location;lat;lon;timestamp;pressure;altitude;pressure_sealevel;temperature;humidity
35331;BME280;21441;52.190;20.910;2024-03-23T00:51:55;99308.56;;;8.50;100.00
35331;BME280;21441;52.190;20.910;2024-03-23T00:54:21;99295.91;;;8.29;100.00
35331;BME280;21441;52.190;20.910;2024-03-23T00:56:47;99297.03;;;8.35;100.00
35331;BME280;21441;52.190;20.910;2024-03-23T00:59:13;99285.56;;;8.34;100.00
35331;BME280;21441;52.190;20.910;2024-03-23T01:01:40;99288.84;;;8.36;100.00
35331;BME280;21441;52.190;20.910;2024-03-23T01:04:06;99278.97;;;8.30;100.00
35331;BME280;21441;52.190;20.910;2024-03-23T01:06:33;99280.03;;;8.44;100.00
35331;BME280;21441;52.190;20.910;2024-03-23T01:09:00;99276.03;;;8.40;100.00
35331;BME280;21441;52.190;20.910;2024-03-23T01:11:28;99285.56;;;8.34;100.00
35331;BME280;21441;52.190;20.910;2024-03-23T01:13:54;99294.28;;;8.28;100.00
35331;BME280;21441;52.190;20.910;2024-03-23T01:16:21;99254.53;;;8.12;100.00
35331;BME280;21441;52.190;20.910;2024-03-23T01:18:47;99276.53;;;8.20;100.00
35331;BME280;21441;52.190;20.910;2024-03-23T01:21:14;99280.88;;;8.21;100.00
35331;BME280;21441;52.190;20.910;2024-03-23T01:23:40;99269.59;;;8.19;100.00
35331;BME280;21441;52.190;20.910;2024-03-23T01:26:09;99268.75;;;8.19;100.00
35331;BME280;21441;52.190;20.910;2024-03-23T01:28:35;99265.69;;;8.30;100.00
35331;BME280;21441;52.190;20.910;2024-03-23T01:31:02;99244.22;;;8.32;100.00
35331;BME280;21441;52.190;20.910;2024-03-23T01:33:28;99262.72;;;8.48;100.00
35331;BME280;21441;52.190;20.910;2024-03-23T01:35:55;99269.22;;;8.45;100.00
35331;BME280;21441;52.190;20.910;2024-03-23T01:38:21;99261.84;;;8.33;100.00
35331;BME280;21441;52.190;20.910;2024-03-23T01:40:48;99260.16;;;8.32;100.00
35331;BME280;21441;52.190;20.910;2024-03-23T01:43:15;99252.84;;;8.34;100.00
35331;BME280;21441;52.190;20.910;2024-03-23T01:45:42;99259.59;;;8.44;100.00
35331;BME280;21441;52.190;20.910;2024-03-23T01:48:08;99260.06;;;8.48;100.00
35331;BME280;21441;52.190;20.910;2024-03-23T01:50:38;99259.84;;;8.50;100.00
35331;BME280;21441;52.190;20.910;2024-03-23T01:53:04;99249.19;;;8.35;100.00
35331;BME280;21441;52.190;20.910;2024-03-23T01:55:32;99255.16;;;8.37;100.00
35331;BME280;21441;52.190;20.910;2024-03-23T01:57:59;99254.91;;;8.46;100.00
35331;BME280;21441;52.190;20.910;2024-03-23T02:00:27;99241.16;;;8.43;100.00
35331;BME280;21441;52.190;20.910;2024-03-23T02:02:53;99241.81;;;8.45;100.00
35331;BME280;21441;52.190;20.910;2024-03-23T02:05:22;99244.94;;;8.49;100.00
35331;BME280;21441;52.190;20.910;2024-03-23T02:07:48;99235.75;;;8.51;100.00
35331;BME280;21441;52.190;20.910;2024-03-23T02:10:14;99234.94;;;8.51;100.00
35331;BME280;21441;52.190;20.910;2024-03-23T02:12:41;99240.63;;;8.48;100.00
35331;BME280;21441;52.190;20.910;2024-03-23T02:15:07;99239.63;;;8.49;100.00
35331;BME280;21441;52.190;20.910;2024-03-23T02:17:36;99238.03;;;8.39;100.00
35331;BME280;21441;52.190;20.910;2024-03-23T02:20:03;99240.09;;;8.52;100.00
35331;BME280;21441;52.190;20.910;2024-03-23T02:22:36;99226.22;;;8.42;100.00
35331;BME280;21441;52.190;20.910;2024-03-23T02:25:05;99237.16;;;8.62;100.00
35331;BME280;21441;52.190;20.910;2024-03-23T02:27:32;99241.63;;;8.46;100.00
35331;BME280;21441;52.190;20.910;2024-03-23T02:30:00;99232.28;;;8.51;100.00
35331;BME280;21441;52.190;20.910;2024-03-23T02:32:26;99226.03;;;8.58;100.00
35331;BME280;21441;52.190;20.910;2024-03-23T02:34:53;99223.84;;;8.47;100.00
35331;BME280;21441;52.190;20.910;2024-03-23T02:37:19;99216.28;;;8.36;100.00
35331;BME280;21441;52.190;20.910;2024-03-23T02:39:46;99222.63;;;8.35;100.00
35331;BME280;21441;52.190;20.910;2024-03-23T02:42:13;99232.50;;;8.26;100.00
35331;BME280;21441;52.190;20.910;2024-03-23T02:44:42;99222.69;;;8.26;100.00
35331;BME280;21441;52.190;20.910;2024-03-23T02:47:08;99214.44;;;8.21;100.00
35331;BME280;21441;52.190;20.910;2024-03-23T02:49:35;99220.69;;;8.29;100.00
35331;BME280;21441;52.190;20.910;2024-03-23T02:52:01;99217.22;;;8.28;100.00
35331;BME280;21441;52.190;20.910;2024-03-23T02:54:28;99208.69;;;8.33;100.00
35331;BME280;21441;52.190;20.910;2024-03-23T02:56:54;99203.81;;;8.36;100.00
35331;BME280;21441;52.190;20.910;2024-03-23T02:59:22;99184.41;;;8.36;100.00
35331;BME280;21441;52.190;20.910;2024-03-23T03:01:48;99205.53;;;8.52;100.00
35331;BME280;21441;52.190;20.910;2024-03-23T03:04:15;99200.22;;;8.52;100.00
35331;BME280;21441;52.190;20.910;2024-03-23T03:06:41;99190.88;;;8.56;100.00
35331;BME280;21441;52.190;20.910;2024-03-23T03:09:08;99184.53;;;8.57;100.00
35331;BME280;21441;52.190;20.910;2024-03-23T03:11:34;99186.94;;;8.52;100.00
35331;BME280;21441;52.190;20.910;2024-03-23T03:14:00;99193.31;;;8.58;100.00
35331;BME280;21441;52.190;20.910;2024-03-23T03:16:28;99188.72;;;8.52;100.00
35331;BME280;21441;52.190;20.910;2024-03-23T03:18:56;99190.31;;;8.61;100.00
35331;BME280;21441;52.190;20.910;2024-03-23T03:21:22;99185.00;;;8.61;100.00
35331;BME280;21441;52.190;20.910;2024-03-23T03:23:49;99185.91;;;8.68;100.00
35331;BME280;21441;52.190;20.910;2024-03-23T03:26:16;99181.56;;;8.67;100.00
35331;BME280;21441;52.190;20.910;2024-03-23T03:28:43;99193.63;;;8.63;100.00
35331;BME280;21441;52.190;20.910;2024-03-23T03:31:09;99185.25;;;8.66;100.00
35331;BME280;21441;52.190;20.910;2024-03-23T03:33:37;99189.94;;;8.64;100.00
35331;BME280;21441;52.190;20.910;2024-03-23T03:36:04;99179.59;;;8.54;100.00
35331;BME280;21441;52.190;20.910;2024-03-23T03:38:31;99190.34;;;8.38;100.00
35331;BME280;21441;52.190;20.910;2024-03-23T03:40:57;99195.72;;;8.53;100.00
35331;BME280;21441;52.190;20.910;2024-03-23T03:43:24;99195.00;;;8.59;100.00
35331;BME280;21441;52.190;20.910;2024-03-23T03:45:53;99195.63;;;8.61;100.00
35331;BME280;21441;52.190;20.910;2024-03-23T03:48:20;99179.84;;;8.44;100.00
35331;BME280;21441;52.190;20.910;2024-03-23T03:50:48;99185.63;;;8.48;100.00
35331;BME280;21441;52.190;20.910;2024-03-23T03:53:15;99187.75;;;8.53;100.00
35331;BME280;21441;52.190;20.910;2024-03-23T03:55:41;99168.09;;;8.39;100.00
35331;BME280;21441;52.190;20.910;2024-03-23T03:58:08;99185.81;;;8.46;100.00
35331;BME280;21441;52.190;20.910;2024-03-23T04:00:34;99179.22;;;8.57;100.00
35331;BME280;21441;52.190;20.910;2024-03-23T04:03:01;99168.28;;;8.67;100.00
35331;BME280;21441;52.190;20.910;2024-03-23T04:05:27;99163.53;;;8.77;100.00
35331;BME280;21441;52.190;20.910;2024-03-23T04:07:56;99176.09;;;8.68;100.00
35331;BME280;21441;52.190;20.910;2024-03-23T04:10:22;99165.53;;;8.75;100.00
35331;BME280;21441;52.190;20.910;2024-03-23T04:12:48;99163.06;;;8.74;100.00
35331;BME280;21441;52.190;20.910;2024-03-23T04:15:14;99168.66;;;8.79;100.00
35331;BME280;21441;52.190;20.910;2024-03-23T04:17:41;99168.28;;;8.82;100.00
35331;BME280;21441;52.190;20.910;2024-03-23T04:20:09;99158.84;;;8.79;100.00
35331;BME280;21441;52.190;20.910;2024-03-23T04:22:39;99140.31;;;8.71;100.00
35331;BME280;21441;52.190;20.910;2024-03-23T04:25:07;99158.66;;;8.81;100.00
35331;BME280;21441;52.190;20.910;2024-03-23T04:27:36;99156.81;;;8.81;100.00
35331;BME280;21441;52.190;20.910;2024-03-23T04:30:03;99146.75;;;8.77;100.00
35331;BME280;21441;52.190;20.910;2024-03-23T04:32:35;99139.13;;;8.74;100.00
35331;BME280;21441;52.190;20.910;2024-03-23T04:35:01;99151.50;;;8.66;100.00
35331;BME280;21441;52.190;20.910;2024-03-23T04:37:31;99148.50;;;8.70;100.00
35331;BME280;21441;52.190;20.910;2024-03-23T04:39:59;99151.16;;;8.70;100.00
35331;BME280;21441;52.190;20.910;2024-03-23T04:42:27;99153.34;;;8.66;100.00
35331;BME280;21441;52.190;20.910;2024-03-23T04:44:54;99130.81;;;8.62;100.00
35331;BME280;21441;52.190;20.910;2024-03-23T04:47:21;99144.19;;;8.68;100.00
35331;BME280;21441;52.190;20.910;2024-03-23T04:49:48;99136.66;;;8.72;100.00
35331;BME280;21441;52.190;20.910;2024-03-23T04:52:15;99126.66;;;8.74;100.00
35331;BME280;21441;52.190;20.910;2024-03-23T04:54:43;99100.91;;;8.60;100.00
35331;BME280;21441;52.190;20.910;2024-03-23T04:57:09;99119.59;;;8.66;100.00
35331;BME280;21441;52.190;20.910;2024-03-23T04:59:37;99115.97;;;8.53;100.00
35331;BME280;21441;52.190;20.910;2024-03-23T05:02:03;99122.94;;;8.54;100.00
35331;BME280;21441;52.190;20.910;2024-03-23T05:04:30;99130.53;;;8.57;100.00
35331;BME280;21441;52.190;20.910;2024-03-23T05:06:57;99129.69;;;8.71;100.00
35331;BME280;21441;52.190;20.910;2024-03-23T05:09:25;99119.25;;;8.70;100.00
35331;BME280;21441;52.190;20.910;2024-03-23T05:11:55;99125.94;;;8.65;100.00
35331;BME280;21441;52.190;20.910;2024-03-23T05:14:22;99124.03;;;8.59;100.00
35331;BME280;21441;52.190;20.910;2024-03-23T05:16:49;99127.41;;;8.68;100.00
35331;BME280;21441;52.190;20.910;2024-03-23T05:19:16;99121.44;;;8.66;100.00
35331;BME280;21441;52.190;20.910;2024-03-23T05:21:42;99120.72;;;8.57;100.00
35331;BME280;21441;52.190;20.910;2024-03-23T05:24:10;99113.31;;;8.53;100.00
35331;BME280;21441;52.190;20.910;2024-03-23T05:26:36;99102.75;;;8.59;100.00
35331;BME280;21441;52.190;20.910;2024-03-23T05:29:03;99109.72;;;8.60;100.00
35331;BME280;21441;52.190;20.910;2024-03-23T05:31:30;99109.16;;;8.65;100.00
35331;BME280;21441;52.190;20.910;2024-03-23T05:33:59;99114.59;;;8.72;100.00
35331;BME280;21441;52.190;20.910;2024-03-23T05:36:25;99119.34;;;8.76;100.00
35331;BME280;21441;52.190;20.910;2024-03-23T05:38:52;99103.25;;;8.84;100.00
35331;BME280;21441;52.190;20.910;2024-03-23T05:41:18;99096.16;;;8.70;100.00
35331;BME280;21441;52.190;20.910;2024-03-23T05:43:45;99113.16;;;8.76;100.00
35331;BME280;21441;52.190;20.910;2024-03-23T05:46:11;99113.38;;;8.74;100.00
35331;BME280;21441;52.190;20.910;2024-03-23T05:48:38;99108.63;;;8.70;100.00
35331;BME280;21441;52.190;20.910;2024-03-23T05:51:05;99106.22;;;8.75;100.00
35331;BME280;21441;52.190;20.910;2024-03-23T05:53:33;99104.78;;;8.57;100.00
35331;BME280;21441;52.190;20.910;2024-03-23T05:56:00;99114.69;;;8.49;100.00
35331;BME280;21441;52.190;20.910;2024-03-23T05:58:29;99112.03;;;8.49;100.00
35331;BME280;21441;52.190;20.910;2024-03-23T06:00:57;99104.31;;;8.54;100.00
35331;BME280;21441;52.190;20.910;2024-03-23T06:03:33;99098.28;;;8.45;100.00
35331;BME280;21441;52.190;20.910;2024-03-23T06:06:01;99094.78;;;8.59;100.00
35331;BME280;21441;52.190;20.910;2024-03-23T06:08:29;99088.44;;;8.60;100.00
35331;BME280;21441;52.190;20.910;2024-03-23T06:10:56;99087.81;;;8.58;100.00
35331;BME280;21441;52.190;20.910;2024-03-23T06:13:22;99087.19;;;8.56;100.00
35331;BME280;21441;52.190;20.910;2024-03-23T06:15:55;99103.75;;;8.58;100.00
35331;BME280;21441;52.190;20.910;2024-03-23T06:18:21;99095.25;;;8.63;100.00
35331;BME280;21441;52.190;20.910;2024-03-23T06:20:48;99086.72;;;8.67;100.00
35331;BME280;21441;52.190;20.910;2024-03-23T06:23:14;99075.78;;;8.62;100.00
35331;BME280;21441;52.190;20.910;2024-03-23T06:25:43;99085.69;;;8.68;100.00
35331;BME280;21441;52.190;20.910;2024-03-23T06:28:10;99088.59;;;8.74;100.00
35331;BME280;21441;52.190;20.910;2024-03-23T06:30:37;99082.56;;;8.65;100.00
35331;BME280;21441;52.190;20.910;2024-03-23T06:33:03;99083.13;;;8.60;100.00
35331;BME280;21441;52.190;20.910;2024-03-23T06:35:31;99086.00;;;8.59;100.00
35331;BME280;21441;52.190;20.910;2024-03-23T06:37:57;99093.47;;;8.70;100.00
35331;BME280;21441;52.190;20.910;2024-03-23T06:40:24;99080.94;;;8.64;100.00
35331;BME280;21441;52.190;20.910;2024-03-23T06:42:51;99078.91;;;8.66;100.00
35331;BME280;21441;52.190;20.910;2024-03-23T06:45:18;99074.22;;;8.68;100.00
35331;BME280;21441;52.190;20.910;2024-03-23T06:47:49;99066.25;;;8.68;100.00
35331;BME280;21441;52.190;20.910;2024-03-23T06:50:16;99066.25;;;8.68;100.00
35331;BME280;21441;52.190;20.910;2024-03-23T06:52:42;99044.66;;;8.56;100.00
35331;BME280;21441;52.190;20.910;2024-03-23T06:55:08;99058.09;;;8.70;100.00
35331;BME280;21441;52.190;20.910;2024-03-23T06:57:34;99050.13;;;8.70;100.00
35331;BME280;21441;52.190;20.910;2024-03-23T07:00:04;99053.16;;;8.66;100.00
35331;BME280;21441;52.190;20.910;2024-03-23T07:02:30;99067.06;;;8.68;100.00
35331;BME280;21441;52.190;20.910;2024-03-23T07:04:57;99067.91;;;8.69;100.00
35331;BME280;21441;52.190;20.910;2024-03-23T07:07:23;99066.63;;;8.65;100.00
35331;BME280;21441;52.190;20.910;2024-03-23T07:09:50;99063.53;;;8.61;100.00
35331;BME280;21441;52.190;20.910;2024-03-23T07:12:16;99053.47;;;8.57;100.00
35331;BME280;21441;52.190;20.910;2024-03-23T07:14:43;99056.94;;;8.57;100.00
35331;BME280;21441;52.190;20.910;2024-03-23T07:17:10;99054.84;;;8.53;100.00
35331;BME280;21441;52.190;20.910;2024-03-23T07:19:37;99059.25;;;8.45;100.00
35331;BME280;21441;52.190;20.910;2024-03-23T07:22:04;99062.72;;;8.46;100.00
35331;BME280;21441;52.190;20.910;2024-03-23T07:24:30;99048.06;;;8.50;100.00
35331;BME280;21441;52.190;20.910;2024-03-23T07:26:57;99052.25;;;8.59;100.00
35331;BME280;21441;52.190;20.910;2024-03-23T07:29:24;99043.47;;;8.59;100.00
35331;BME280;21441;52.190;20.910;2024-03-23T07:31:50;99044.13;;;8.46;100.00
35331;BME280;21441;52.190;20.910;2024-03-23T07:34:18;99036.78;;;8.33;100.00
35331;BME280;21441;52.190;20.910;2024-03-23T07:36:44;99043.91;;;8.62;100.00
35331;BME280;21441;52.190;20.910;2024-03-23T07:39:11;99029.63;;;8.49;100.00
35331;BME280;21441;52.190;20.910;2024-03-23T07:41:37;99036.47;;;8.58;100.00
35331;BME280;21441;52.190;20.910;2024-03-23T07:44:04;99022.25;;;8.65;100.00
35331;BME280;21441;52.190;20.910;2024-03-23T07:46:30;99029.56;;;8.78;100.00
35331;BME280;21441;52.190;20.910;2024-03-23T07:48:57;99026.84;;;8.72;100.00
35331;BME280;21441;52.190;20.910;2024-03-23T07:51:24;99021.06;;;8.68;100.00
35331;BME280;21441;52.190;20.910;2024-03-23T07:53:51;99017.66;;;8.74;100.00
35331;BME280;21441;52.190;20.910;2024-03-23T07:56:18;99009.53;;;8.82;100.00
35331;BME280;21441;52.190;20.910;2024-03-23T07:58:45;99006.50;;;8.85;100.00
35331;BME280;21441;52.190;20.910;2024-03-23T08:01:12;98978.19;;;8.78;100.00
35331;BME280;21441;52.190;20.910;2024-03-23T08:03:41;98985.66;;;8.89;100.00
35331;BME280;21441;52.190;20.910;2024-03-23T08:06:08;98995.91;;;9.14;100.00
35331;BME280;21441;52.190;20.910;2024-03-23T08:08:37;99002.63;;;9.09;100.00
35331;BME280;21441;52.190;20.910;2024-03-23T08:11:03;98999.53;;;9.06;100.00
35331;BME280;21441;52.190;20.910;2024-03-23T08:13:31;98983.66;;;9.19;100.00
35331;BME280;21441;52.190;20.910;2024-03-23T08:15:57;98989.69;;;9.28;100.00
35331;BME280;21441;52.190;20.910;2024-03-23T08:18:24;98990.06;;;9.25;100.00
35331;BME280;21441;52.190;20.910;2024-03-23T08:20:57;98981.59;;;9.15;100.00
35331;BME280;21441;52.190;20.910;2024-03-23T08:23:24;98975.44;;;9.14;100.00
35331;BME280;21441;52.190;20.910;2024-03-23T08:25:52;98985.91;;;9.16;100.00
35331;BME280;21441;52.190;20.910;2024-03-23T08:28:19;98969.59;;;9.25;100.00
35331;BME280;21441;52.190;20.910;2024-03-23T08:30:45;98968.69;;;9.40;100.00
35331;BME280;21441;52.190;20.910;2024-03-23T08:33:11;98960.63;;;9.61;100.00
35331;BME280;21441;52.190;20.910;2024-03-23T08:35:38;98964.63;;;9.85;100.00
35331;BME280;21441;52.190;20.910;2024-03-23T08:38:05;98964.41;;;9.80;100.00
35331;BME280;21441;52.190;20.910;2024-03-23T08:40:31;98951.13;;;9.87;100.00
35331;BME280;21441;52.190;20.910;2024-03-23T08:42:59;98944.69;;;10.16;100.00
35331;BME280;21441;52.190;20.910;2024-03-23T08:45:25;98942.72;;;10.38;100.00
35331;BME280;21441;52.190;20.910;2024-03-23T08:47:52;98944.94;;;10.28;100.00
35331;BME280;21441;52.190;20.910;2024-03-23T08:50:18;98938.44;;;10.37;100.00
35331;BME280;21441;52.190;20.910;2024-03-23T08:52:45;98940.25;;;10.30;100.00
35331;BME280;21441;52.190;20.910;2024-03-23T08:55:11;98950.22;;;10.08;100.00
35331;BME280;21441;52.190;20.910;2024-03-23T08:57:39;98941.19;;;10.16;100.00
35331;BME280;21441;52.190;20.910;2024-03-23T09:00:07;98937.28;;;10.11;100.00
35331;BME280;21441;52.190;20.910;2024-03-23T09:02:34;98933.22;;;10.22;100.00
35331;BME280;21441;52.190;20.910;2024-03-23T09:05:00;98920.16;;;10.34;100.00
35331;BME280;21441;52.190;20.910;2024-03-23T09:07:30;98918.97;;;10.43;100.00
35331;BME280;21441;52.190;20.910;2024-03-23T09:09:56;98911.63;;;10.65;100.00
35331;BME280;21441;52.190;20.910;2024-03-23T09:12:23;98910.38;;;10.94;100.00
35331;BME280;21441;52.190;20.910;2024-03-23T09:14:49;98900.53;;;10.95;100.00
35331;BME280;21441;52.190;20.910;2024-03-23T09:17:17;98893.97;;;11.11;100.00
35331;BME280;21441;52.190;20.910;2024-03-23T09:19:44;98888.00;;;11.15;100.00
35331;BME280;21441;52.190;20.910;2024-03-23T09:22:10;98885.09;;;11.24;100.00
35331;BME280;21441;52.190;20.910;2024-03-23T09:24:38;98875.38;;;11.49;100.00
35331;BME280;21441;52.190;20.910;2024-03-23T09:27:05;98873.88;;;11.73;100.00
35331;BME280;21441;52.190;20.910;2024-03-23T09:29:31;98873.59;;;11.95;100.00
35331;BME280;21441;52.190;20.910;2024-03-23T09:31:58;98868.53;;;11.73;100.00
35331;BME280;21441;52.190;20.910;2024-03-23T09:34:25;98881.81;;;11.87;100.00
35331;BME280;21441;52.190;20.910;2024-03-23T09:36:52;98879.59;;;11.84;100.00
35331;BME280;21441;52.190;20.910;2024-03-23T09:39:18;98860.69;;;11.78;100.00
35331;BME280;21441;52.190;20.910;2024-03-23T09:41:45;98872.22;;;11.72;100.00
35331;BME280;21441;52.190;20.910;2024-03-23T09:44:11;98861.91;;;11.83;100.00
35331;BME280;21441;52.190;20.910;2024-03-23T09:46:38;98863.31;;;11.92;100.00
35331;BME280;21441;52.190;20.910;2024-03-23T09:49:05;98856.16;;;11.92;100.00
35331;BME280;21441;52.190;20.910;2024-03-23T09:51:37;98850.88;;;12.11;100.00
35331;BME280;21441;52.190;20.910;2024-03-23T09:54:03;98848.13;;;11.92;100.00
35331;BME280;21441;52.190;20.910;2024-03-23T09:56:30;98840.31;;;12.23;100.00
35331;BME280;21441;52.190;20.910;2024-03-23T09:59:02;98818.34;;;12.71;100.00
35331;BME280;21441;52.190;20.910;2024-03-23T10:01:30;98832.94;;;12.75;100.00
35331;BME280;21441;52.190;20.910;2024-03-23T10:03:56;98810.16;;;12.66;100.00
35331;BME280;21441;52.190;20.910;2024-03-23T10:06:23;98801.63;;;12.75;100.00
35331;BME280;21441;52.190;20.910;2024-03-23T10:08:52;98801.28;;;12.72;100.00
35331;BME280;21441;52.190;20.910;2024-03-23T10:11:20;98778.25;;;12.89;100.00
35331;BME280;21441;52.190;20.910;2024-03-23T10:13:47;98768.31;;;13.33;100.00
35331;BME280;21441;52.190;20.910;2024-03-23T10:16:21;98770.03;;;13.46;100.00
35331;BME280;21441;52.190;20.910;2024-03-23T10:18:48;98765.91;;;13.44;100.00
35331;BME280;21441;52.190;20.910;2024-03-23T10:21:15;98731.88;;;13.62;100.00
35331;BME280;21441;52.190;20.910;2024-03-23T10:23:43;98746.16;;;13.56;100.00
35331;BME280;21441;52.190;20.910;2024-03-23T10:26:18;98744.50;;;13.74;100.00
35331;BME280;21441;52.190;20.910;2024-03-23T10:28:57;98732.94;;;14.03;100.00
35331;BME280;21441;52.190;20.910;2024-03-23T10:31:25;98717.91;;;14.26;100.00
35331;BME280;21441;52.190;20.910;2024-03-23T10:33:52;98715.38;;;14.43;100.00
35331;BME280;21441;52.190;20.910;2024-03-23T10:36:20;98713.41;;;14.74;100.00
35331;BME280;21441;52.190;20.910;2024-03-23T10:38:49;98724.94;;;14.74;97.79
35331;BME280;21441;52.190;20.910;2024-03-23T10:41:17;98715.03;;;14.63;94.76
35331;BME280;21441;52.190;20.910;2024-03-23T10:43:47;98699.59;;;14.82;95.19
35331;BME280;21441;52.190;20.910;2024-03-23T10:46:13;98697.63;;;14.77;94.12
35331;BME280;21441;52.190;20.910;2024-03-23T10:48:41;98700.63;;;15.04;94.48
35331;BME280;21441;52.190;20.910;2024-03-23T10:51:07;98692.78;;;15.03;91.98
35331;BME280;21441;52.190;20.910;2024-03-23T10:53:35;98689.44;;;14.96;89.87
35331;BME280;21441;52.190;20.910;2024-03-23T10:56:03;98681.19;;;15.14;89.43
35331;BME280;21441;52.190;20.910;2024-03-23T10:58:36;98670.13;;;15.11;84.99
35331;BME280;21441;52.190;20.910;2024-03-23T11:01:02;98633.66;;;15.15;85.38
35331;BME280;21441;52.190;20.910;2024-03-23T11:03:31;98653.91;;;15.34;86.65
35331;BME280;21441;52.190;20.910;2024-03-23T11:05:57;98650.19;;;15.52;83.09
35331;BME280;21441;52.190;20.910;2024-03-23T11:08:31;98656.94;;;15.38;81.99
35331;BME280;21441;52.190;20.910;2024-03-23T11:11:19;98669.56;;;15.37;80.98
35331;BME280;21441;52.190;20.910;2024-03-23T11:13:49;98656.69;;;15.39;77.95
35331;BME280;21441;52.190;20.910;2024-03-23T11:16:16;98666.97;;;15.42;76.30
35331;BME280;21441;52.190;20.910;2024-03-23T11:18:44;98649.47;;;15.85;77.00
35331;BME280;21441;52.190;20.910;2024-03-23T11:21:10;98637.88;;;16.19;74.32
35331;BME280;21441;52.190;20.910;2024-03-23T11:23:38;98644.31;;;16.57;74.13
35331;BME280;21441;52.190;20.910;2024-03-23T11:26:07;98608.34;;;16.85;71.51
35331;BME280;21441;52.190;20.910;2024-03-23T11:28:35;98637.78;;;16.53;66.75
35331;BME280;21441;52.190;20.910;2024-03-23T11:31:09;98622.91;;;15.72;70.29
35331;BME280;21441;52.190;20.910;2024-03-23T11:33:36;98610.16;;;16.01;71.07
35331;BME280;21441;52.190;20.910;2024-03-23T11:36:03;98608.31;;;16.63;69.17
35331;BME280;21441;52.190;20.910;2024-03-23T11:38:36;98604.84;;;16.84;64.64
35331;BME280;21441;52.190;20.910;2024-03-23T11:41:03;98611.31;;;16.44;64.05
35331;BME280;21441;52.190;20.910;2024-03-23T11:43:29;98594.94;;;16.29;64.34
35331;BME280;21441;52.190;20.910;2024-03-23T11:45:55;98583.84;;;16.64;63.83
35331;BME280;21441;52.190;20.910;2024-03-23T11:48:24;98573.94;;;16.70;61.27
35331;BME280;21441;52.190;20.910;2024-03-23T11:50:56;98575.03;;;16.47;61.59
35331;BME280;21441;52.190;20.910;2024-03-23T11:53:24;98564.00;;;16.48;61.54
35331;BME280;21441;52.190;20.910;2024-03-23T11:55:54;98566.47;;;16.33;61.65
35331;BME280;21441;52.190;20.910;2024-03-23T11:58:23;98555.59;;;16.23;62.34
35331;BME280;21441;52.190;20.910;2024-03-23T12:00:50;98555.16;;;16.53;60.67
35331;BME280;21441;52.190;20.910;2024-03-23T12:03:18;98550.47;;;16.65;61.65
35331;BME280;21441;52.190;20.910;2024-03-23T12:05:49;98544.84;;;16.67;57.87
35331;BME280;21441;52.190;20.910;2024-03-23T12:08:20;98535.44;;;16.91;54.44
35331;BME280;21441;52.190;20.910;2024-03-23T12:10:48;98542.22;;;16.99;54.80
35331;BME280;21441;52.190;20.910;2024-03-23T12:13:17;98538.81;;;16.60;56.67
35331;BME280;21441;52.190;20.910;2024-03-23T12:15:44;98532.13;;;16.84;56.54
35331;BME280;21441;52.190;20.910;2024-03-23T12:18:11;98516.88;;;17.22;55.73
35331;BME280;21441;52.190;20.910;2024-03-23T12:20:38;98526.25;;;17.52;55.91
35331;BME280;21441;52.190;20.910;2024-03-23T12:23:10;98512.16;;;17.40;56.34
35331;BME280;21441;52.190;20.910;2024-03-23T12:25:37;98513.31;;;17.17;56.99
35331;BME280;21441;52.190;20.910;2024-03-23T12:28:05;98497.34;;;16.56;58.12
35331;BME280;21441;52.190;20.910;2024-03-23T12:30:35;98507.91;;;15.96;60.25
35331;BME280;21441;52.190;20.910;2024-03-23T12:33:02;98510.44;;;15.52;61.64
35331;BME280;21441;52.190;20.910;2024-03-23T12:35:29;98511.09;;;15.25;62.21
35331;BME280;21441;52.190;20.910;2024-03-23T12:37:56;98504.81;;;15.03;63.41
35331;BME280;21441;52.190;20.910;2024-03-23T12:40:24;98490.44;;;15.09;64.74
35331;BME280;21441;52.190;20.910;2024-03-23T12:42:50;98491.25;;;15.26;64.50
35331;BME280;21441;52.190;20.910;2024-03-23T12:45:16;98496.06;;;15.24;64.35
35331;BME280;21441;52.190;20.910;2024-03-23T12:47:43;98477.19;;;15.19;64.60
35331;BME280;21441;52.190;20.910;2024-03-23T12:50:10;98481.31;;;15.27;64.75
35331;BME280;21441;52.190;20.910;2024-03-23T12:52:36;98465.59;;;15.36;65.10
35331;BME280;21441;52.190;20.910;2024-03-23T12:55:03;98471.63;;;15.43;64.06
35331;BME280;21441;52.190;20.910;2024-03-23T12:57:32;98452.97;;;15.36;63.96
35331;BME280;21441;52.190;20.910;2024-03-23T12:59:59;98442.63;;;15.45;64.43
35331;BME280;21441;52.190;20.910;2024-03-23T13:02:27;98430.66;;;15.53;64.16
35331;BME280;21441;52.190;20.910;2024-03-23T13:04:53;98433.97;;;15.77;63.47
35331;BME280;21441;52.190;20.910;2024-03-23T13:07:21;98424.53;;;15.74;62.60
35331;BME280;21441;52.190;20.910;2024-03-23T13:09:50;98425.41;;;15.63;62.63
35331;BME280;21441;52.190;20.910;2024-03-23T13:12:17;98424.16;;;15.48;62.55
35331;BME280;21441;52.190;20.910;2024-03-23T13:14:46;98412.34;;;15.50;62.69
35331;BME280;21441;52.190;20.910;2024-03-23T13:17:12;98403.13;;;15.45;60.75
35331;BME280;21441;52.190;20.910;2024-03-23T13:19:39;98404.53;;;15.48;60.25
35331;BME280;21441;52.190;20.910;2024-03-23T13:22:06;98392.72;;;15.49;60.49
35331;BME280;21441;52.190;20.910;2024-03-23T13:24:32;98402.91;;;15.47;59.71
35331;BME280;21441;52.190;20.910;2024-03-23T13:26:59;98387.19;;;15.39;59.69
35331;BME280;21441;52.190;20.910;2024-03-23T13:29:25;98392.84;;;15.37;60.34
35331;BME280;21441;52.190;20.910;2024-03-23T13:31:53;98389.34;;;15.20;60.05
35331;BME280;21441;52.190;20.910;2024-03-23T13:34:19;98372.34;;;15.14;60.59
35331;BME280;21441;52.190;20.910;2024-03-23T13:36:46;98374.84;;;15.21;60.69
35331;BME280;21441;52.190;20.910;2024-03-23T13:39:13;98359.28;;;15.40;60.36